地図

経路データ

SID SEASON NUMBER BASIN SUBBASIN NAME ISO_TIME NATURE LAT LON WMO_WIND WMO_PRES WMO_AGENCY TRACK_TYPE DIST2LAND LANDFALL IFLAG USA_AGENCY USA_ATCF_ID USA_LAT USA_LON USA_RECORD USA_STATUS USA_WIND USA_PRES USA_SSHS USA_R34_NE USA_R34_SE USA_R34_SW USA_R34_NW USA_R50_NE USA_R50_SE USA_R50_SW USA_R50_NW USA_R64_NE USA_R64_SE USA_R64_SW USA_R64_NW USA_POCI USA_ROCI USA_RMW USA_EYE TOKYO_LAT TOKYO_LON TOKYO_GRADE TOKYO_WIND TOKYO_PRES TOKYO_R50_DIR TOKYO_R50_LONG TOKYO_R50_SHORT TOKYO_R30_DIR TOKYO_R30_LONG TOKYO_R30_SHORT TOKYO_LAND CMA_LAT CMA_LON CMA_CAT CMA_WIND CMA_PRES HKO_LAT HKO_LON HKO_CAT HKO_WIND HKO_PRES NEWDELHI_LAT NEWDELHI_LON NEWDELHI_GRADE NEWDELHI_WIND NEWDELHI_PRES NEWDELHI_CI NEWDELHI_DP NEWDELHI_POCI REUNION_LAT REUNION_LON REUNION_TYPE REUNION_WIND REUNION_PRES REUNION_TNUM REUNION_CI REUNION_RMW REUNION_R34_NE REUNION_R34_SE REUNION_R34_SW REUNION_R34_NW REUNION_R50_NE REUNION_R50_SE REUNION_R50_SW REUNION_R50_NW REUNION_R64_NE REUNION_R64_SE REUNION_R64_SW REUNION_R64_NW BOM_LAT BOM_LON BOM_TYPE BOM_WIND BOM_PRES BOM_TNUM BOM_CI BOM_RMW BOM_R34_NE BOM_R34_SE BOM_R34_SW BOM_R34_NW BOM_R50_NE BOM_R50_SE BOM_R50_SW BOM_R50_NW BOM_R64_NE BOM_R64_SE BOM_R64_SW BOM_R64_NW BOM_ROCI BOM_POCI BOM_EYE BOM_POS_METHOD BOM_PRES_METHOD NADI_LAT NADI_LON NADI_CAT NADI_WIND NADI_PRES WELLINGTON_LAT WELLINGTON_LON WELLINGTON_WIND WELLINGTON_PRES DS824_LAT DS824_LON DS824_STAGE DS824_WIND DS824_PRES TD9636_LAT TD9636_LON TD9636_STAGE TD9636_WIND TD9636_PRES TD9635_LAT TD9635_LON TD9635_WIND TD9635_PRES TD9635_ROCI NEUMANN_LAT NEUMANN_LON NEUMANN_CLASS NEUMANN_WIND NEUMANN_PRES MLC_LAT MLC_LON MLC_CLASS MLC_WIND MLC_PRES USA_GUST BOM_GUST BOM_GUST_PER REUNION_GUST REUNION_GUST_PER USA_SEAHGT USA_SEARAD_NE USA_SEARAD_SE USA_SEARAD_SW USA_SEARAD_NW STORM_SPEED STORM_DIR
1930320N12087 1930 55 NI BB NOT_NAMED 1930-11-16 00:00:00 TS 11.8000 87.2000 main 740 722 _________O____ -1 11.8000 87.2000 TC 30 5 277
1930320N12087 1930 55 NI BB NOT_NAMED 1930-11-16 03:00:00 TS 11.8318 86.9517 main 722 700 _________PO___ -1 11.8477 86.8276 TC 31 11.8000 87.2000 1 5 278
1930320N12087 1930 55 NI BB NOT_NAMED 1930-11-16 06:00:00 TS 11.8724 86.6735 main 700 672 _________OP___ -1 11.9000 86.5000 TC 32 11.8310 86.9338 1 5 281
1930320N12087 1930 55 NI BB NOT_NAMED 1930-11-16 09:00:00 TS 11.9311 86.4074 main 672 643 _________PP___ -1 11.9698 86.2298 TC 33 11.8795 86.6442 1 6 286
1930320N12087 1930 55 NI BB NOT_NAMED 1930-11-16 12:00:00 TS 12.0317 86.1037 main 643 598 _________OP___ -1 12.1000 85.9000 TC 34 11.9633 86.3075 1 8 291
1930320N12087 1930 55 NI BB NOT_NAMED 1930-11-16 15:00:00 TS 12.2214 85.6289 main 587 530 _________PO___ -1 12.3427 85.3578 TC 36 12.1000 85.9000 2 11 293
1930320N12087 1930 55 NI BB NOT_NAMED 1930-11-16 18:00:00 TS 12.4486 85.1068 main 530 483 _________OP___ -1 12.6000 84.8000 TC 39 12.2972 85.4136 2 11 294
1930320N12087 1930 55 NI BB NOT_NAMED 1930-11-16 21:00:00 TS 12.6554 84.6355 main 470 437 _________PP___ -1 12.7874 84.3675 TC 42 12.5234 84.9036 2 9 294
1930320N12087 1930 55 NI BB NOT_NAMED 1930-11-17 00:00:00 TS 12.8189 84.2708 main 437 414 _________OP___ -1 12.9000 84.1000 TC 45 12.7378 84.4416 2 6 295
1930320N12087 1930 55 NI BB NOT_NAMED 1930-11-17 03:00:00 TS 12.9112 84.0737 main 414 403 _________PO___ -1 12.9224 84.0474 TC 45 12.9000 84.1000 3 3 295
1930320N12087 1930 55 NI BB NOT_NAMED 1930-11-17 06:00:00 TS 12.9285 84.0351 main 403 403 _________OP___ -1 12.9000 84.1000 TC 45 12.9570 83.9702 3 0 298
1930320N12087 1930 55 NI BB NOT_NAMED 1930-11-17 09:00:00 TS 12.9297 84.0323 main 403 403 _________PP___ -1 12.9000 84.1000 TC 45 12.9595 83.9646 3 0 0
1930320N12087 1930 55 NI BB NOT_NAMED 1930-11-17 12:00:00 TS 12.9161 84.0633 main 414 414 _________OP___ -1 12.9000 84.1000 TC 45 12.9322 84.0266 3 1 112
1930320N12087 1930 55 NI BB NOT_NAMED 1930-11-17 15:00:00 TS 12.9000 84.1000 main 414 414 _________PO___ -1 12.9000 84.1000 TC 45 12.9000 84.1000 3 1 127
1930320N12087 1930 55 NI BB NOT_NAMED 1930-11-17 18:00:00 TS 12.8490 84.1502 main 426 426 _________OP___ -1 12.9000 84.1000 TC 45 12.7980 84.2004 3 2 136
1930320N12087 1930 55 NI BB NOT_NAMED 1930-11-17 21:00:00 TS 12.7720 84.2262 main 426 426 _________PP___ -1 12.8324 84.1672 TC 45 12.7116 84.2852 3 1 135
1930320N12087 1930 55 NI BB NOT_NAMED 1930-11-18 00:00:00 TS 12.8097 84.1888 main 426 402 _________OP___ -1 12.9000 84.1000 TC 45 12.7195 84.2775 3 4 316
1930320N12087 1930 55 NI BB NOT_NAMED 1930-11-18 03:00:00 TS 13.0649 83.9347 main 390 335 _________PO___ -1 13.2298 83.7694 TC 45 12.9000 84.1000 3 11 313
1930320N12087 1930 55 NI BB NOT_NAMED 1930-11-18 06:00:00 TS 13.5494 83.3860 main 335 255 _________OP___ -1 13.8000 83.2000 TC 45 13.2988 83.5721 3 17 312
1930320N12087 1930 55 NI BB NOT_NAMED 1930-11-18 09:00:00 TS 14.2046 82.6351 main 248 139 _________PP___ -1 14.5333 82.3860 TC 45 13.8759 82.8842 3 21 315
1930320N12087 1930 55 NI BB NOT_NAMED 1930-11-18 12:00:00 TS 14.9949 81.8894 main 131 30 _________OP___ -1 15.4000 81.6000 TC 45 14.5897 82.1788 3 21 323
1930320N12087 1930 55 NI BB NOT_NAMED 1930-11-18 15:00:00 TS 15.8386 81.3538 main 30 0 _________PO___ -1 16.2771 81.1076 TC 41 15.4000 81.6000 3 19 335
1930320N12087 1930 55 NI BB NOT_NAMED 1930-11-18 18:00:00 TS 16.7344 81.0430 main 0 0 _________OP___ -1 17.2000 80.9000 TC 37 16.2689 81.1861 3 19 347
1930320N12087 1930 55 NI BB NOT_NAMED 1930-11-18 21:00:00 TS 17.6828 80.9133 main 0 0 _________PP___ -1 18.1494 80.8856 TC 33 17.2161 80.9411 3 19 0
1930320N12087 1930 55 NI BB NOT_NAMED 1930-11-19 00:00:00 TS 18.6402 81.0625 main 0 0 _________OP___ -1 19.1000 81.2000 TC 30 18.1804 80.9251 3 20 16
1930320N12087 1930 55 NI BB NOT_NAMED 1930-11-19 03:00:00 TS 19.5798 81.5034 main 0 0 _________PO___ -1 20.0597 81.8069 TC 30 19.1000 81.2000 1 21 32
1930320N12087 1930 55 NI BB NOT_NAMED 1930-11-19 06:00:00 TS 20.4281 82.2419 main 0 0 _________OP___ -1 20.9000 82.7000 TC 30 19.9562 81.7838 1 22 46
1930320N12087 1930 55 NI BB NOT_NAMED 1930-11-19 09:00:00 TS 21.1354 83.2002 main 0 0 _________PP___ -1 21.5250 83.7407 TC 30 20.7459 82.6598 1 23 56
1930320N12087 1930 55 NI BB NOT_NAMED 1930-11-19 12:00:00 TS 21.7186 84.3158 main 0 0 _________OP___ -1 22.0000 84.9000 TC 30 21.4372 83.7317 1 24 63
1930320N12087 1930 55 NI BB NOT_NAMED 1930-11-19 15:00:00 TS 22.2296 85.4676 main 0 0 _________PO___ -1 22.4592 86.0352 TC 30 22.0000 84.9000 1 23 67
1930320N12087 1930 55 NI BB NOT_NAMED 1930-11-19 18:00:00 TS 22.5811 86.5600 main 0 0 _________OP___ -1 22.8000 87.2000 TC 30 22.4169 86.0800 1 22 74
1930320N12087 1930 55 NI BB NOT_NAMED 1930-11-19 21:00:00 TS 22.8265 87.7103 main 0 0 _________PP___ -1 22.9944 88.3925 TC 30 22.7146 87.2555 1 21 79
1930320N12087 1930 55 NI BB NOT_NAMED 1930-11-20 00:00:00 TS 22.9867 88.8188 main 0 0 _________OP___ -1 23.1000 89.6000 TC 30 22.9300 88.4281 1 18 81
1930320N12087 1930 55 NI BB NOT_NAMED 1930-11-20 03:00:00 NR 23.1000 89.6000 main 0 __________O___ -1 TC 23.1000 89.6000 1 15 81

IBTrACS Databaseについて

本データベースは、米国NOAAが公開する1842年以降の世界の熱帯低気圧のベストトラックデータアーカイブInternational Best Track Archive for Climate Stewardship (IBTrACS)を、ウェブで閲覧しやすい形式に変換したものです。

最終更新日:2021-10-21